Pagrindinis puslapis
METAR-TAF:

METAR-TAF

Oro uostai :

Macujama, Japonija

platuma: 33-49N, ilguma: 132-42E, Aukštis: 4 m

Dabartinis oras

Ataskaita buvo paskelbta 3 valandos ir 23 minutes, ne 12:00 UTC
Vėjas 6 kt iš Rytų/Pietryčių
Temperatūra 10°C
Drėgmė 66%
Slėgis 1029 hPa
Matomumas 10 km arba daugiau
Mažai debesys ne aukštis 3000 ft

METAR: RJOM 211200Z 11006KT 9999 FEW030 10/04 Q1029

Laikas: 00:23 (15:23 UTC)

Prognozė

Ataskaita buvo paskelbta 4 valandos ir 16 minutes, ne 11:07 UTC
Prognozė galioja nuo 21 metu 12 UTC su 22 metu 18 UTC
Vėjas 10 kt iš Rytų/Pietryčių
Matomumas 10 km arba daugiau
Mažai debesys ne aukštis 3000 ft
Tapsmas
nuo 21 metu 21 UTC su 21 metu 23 UTC
Vėjas 20 kt iš Vakarų
Laikinai
nuo 21 metu 23 UTC su 22 metu 03 UTC
Vėjas 22 kt iš Vakarų/Pietvakarių su gūsio iki 32 kt
Matomumas: 3000 m
lietus, rūkana
Laikinai
nuo 22 metu 03 UTC su 22 metu 09 UTC
Vėjas 27 kt iš Vakarų su gūsio iki 37 kt

TAF: RJOM 211107Z 2112/2218 12010KT 9999 FEW030 BECMG 2121/2123 28020KT TEMPO 2123/2203 25022G32KT 3000 SHRA BR TEMPO 2203/2209 26027G37KT

Orai ataskaitas ir orų prognozės (METAR, TAF).

turimą stotys yra geltonos ir raudonos taškus žemėlapyje.

Perkelti pele per norėdami pamatyti stoties vardą.

Tada spustelėkite, norėdami matyti oro stebėjimo ir prognozės.

Norėdami pakeisti žemėlapį: spustelėkite ant žalios mygtukų su juodo kryžiaus žemyn,; žalią mygtuką su brūkšneliu, jei norite nutolinti; arba žalių rodyklių gretimoms žemėlapius.


METAR-TAF: